createdAt,value
2019-03-28T00:01:21.227Z,99539.30
2019-03-28T00:03:52.117Z,99535.95
2019-03-28T00:06:22.230Z,99535.95
2019-03-28T00:08:52.176Z,99534.61
2019-03-28T00:11:22.106Z,99526.43
2019-03-28T00:13:52.186Z,99522.23
2019-03-28T00:16:22.288Z,99534.80
2019-03-28T00:18:53.185Z,99527.23
2019-03-28T00:21:23.314Z,99527.00
2019-03-28T00:24:06.830Z,99527.78
2019-03-28T00:26:36.863Z,99521.22
2019-03-28T00:29:06.855Z,99521.22
2019-03-28T00:31:36.842Z,99531.31
2019-03-28T00:34:07.043Z,99525.94
2019-03-28T00:36:37.100Z,99525.94
2019-03-28T00:39:08.208Z,99532.19
2019-03-28T00:41:38.138Z,99523.13
2019-03-28T00:44:08.247Z,99521.84
2019-03-28T00:46:38.276Z,99525.81
2019-03-28T00:49:08.301Z,99525.81
2019-03-28T00:54:07.113Z,99523.13
2019-03-28T00:56:46.362Z,99510.06
2019-03-28T00:59:09.000Z,99518.16
2019-03-28T01:01:38.991Z,99521.22
2019-03-28T01:04:09.037Z,99521.78
2019-03-28T01:06:39.131Z,99521.78
2019-03-28T01:09:10.327Z,99514.38
2019-03-28T01:11:40.256Z,99519.00
2019-03-28T01:14:10.658Z,99522.99
2019-03-28T01:16:40.665Z,99522.99
2019-03-28T01:19:10.748Z,99526.56
2019-03-28T01:21:41.202Z,99524.84
2019-03-28T01:24:11.266Z,99512.38
2019-03-28T01:26:41.408Z,99512.38
2019-03-28T01:29:11.421Z,99515.53
2019-03-28T01:31:41.357Z,99519.68
2019-03-28T01:34:11.474Z,99516.98
2019-03-28T01:36:41.492Z,99519.96
2019-03-28T01:39:11.750Z,99513.27
2019-03-28T01:41:41.928Z,99513.27
2019-03-28T01:44:11.968Z,99521.54
2019-03-28T01:46:41.902Z,99519.59
2019-03-28T01:49:11.901Z,99515.69
2019-03-28T01:51:41.802Z,99515.69
2019-03-28T01:54:11.793Z,99505.72
2019-03-28T01:56:41.706Z,99510.47
2019-03-28T01:59:11.646Z,99506.05
2019-03-28T02:01:41.591Z,99506.05
2019-03-28T02:04:11.587Z,99516.12
2019-03-28T02:06:41.559Z,99513.27
2019-03-28T02:09:11.576Z,99518.42
2019-03-28T02:11:41.640Z,99515.69
2019-03-28T02:14:12.367Z,99518.14
2019-03-28T02:16:42.604Z,99518.14
2019-03-28T02:19:12.697Z,99514.84
2019-03-28T02:21:42.820Z,99510.47
2019-03-28T02:24:12.817Z,99510.47
2019-03-28T02:26:42.769Z,99518.53
2019-03-28T02:29:12.712Z,99518.64
2019-03-28T02:31:43.111Z,99525.28
2019-03-28T02:34:13.806Z,99520.36
2019-03-28T02:36:43.723Z,99512.87
2019-03-28T02:39:13.690Z,99512.87
2019-03-28T02:41:43.635Z,99520.12
2019-03-28T02:44:13.904Z,99515.00
2019-03-28T02:46:44.567Z,99516.02
2019-03-28T02:49:14.773Z,99516.02
2019-03-28T02:51:44.932Z,99505.09
2019-03-28T02:54:15.200Z,99505.09
2019-03-28T02:56:45.324Z,99521.70
2019-03-28T02:59:15.306Z,99514.19
2019-03-28T03:01:45.298Z,99513.55
2019-03-28T03:04:15.303Z,99508.66
2019-03-28T03:06:45.320Z,99511.35
2019-03-28T03:09:15.424Z,99511.35
2019-03-28T03:11:45.472Z,99503.73
2019-03-28T03:14:15.525Z,99503.73
2019-03-28T03:16:45.474Z,99509.31
2019-03-28T03:19:16.208Z,99508.66
2019-03-28T03:21:46.164Z,99512.55
2019-03-28T03:24:16.164Z,99522.97
2019-03-28T03:26:46.143Z,99525.58
2019-03-28T03:29:16.096Z,99525.58
2019-03-28T03:31:46.116Z,99523.34
2019-03-28T03:34:16.150Z,99523.95
2019-03-28T03:36:46.178Z,99526.19
2019-03-28T03:39:16.130Z,99525.98
2019-03-28T03:41:46.262Z,99531.02
2019-03-28T03:44:16.443Z,99527.97
2019-03-28T03:46:46.516Z,99531.79
2019-03-28T03:49:16.442Z,99531.48
2019-03-28T03:51:46.741Z,99531.89
2019-03-28T03:54:16.946Z,99539.20
2019-03-28T03:56:47.037Z,99539.20
2019-03-28T03:59:17.115Z,99543.97
2019-03-28T04:01:47.160Z,99537.09
2019-03-28T04:04:17.260Z,99537.09
2019-03-28T04:06:47.310Z,99532.89
2019-03-28T04:09:17.333Z,99536.08
2019-03-28T04:11:47.412Z,99534.48
2019-03-28T04:14:17.716Z,99531.55
2019-03-28T04:16:47.673Z,99536.60
2019-03-28T04:19:17.617Z,99534.16
2019-03-28T04:21:47.606Z,99536.40
2019-03-28T04:24:17.697Z,99533.59
2019-03-28T04:26:47.728Z,99527.20
2019-03-28T04:29:17.730Z,99531.23
2019-03-28T04:31:47.705Z,99526.80
2019-03-28T04:34:17.722Z,99534.73
2019-03-28T04:36:47.716Z,99533.84
2019-03-28T04:39:17.634Z,99544.28
2019-03-28T04:41:47.682Z,99545.98
2019-03-28T04:44:17.726Z,99535.49
2019-03-28T04:46:48.001Z,99541.31
2019-03-28T04:49:18.620Z,99539.61
2019-03-28T04:51:48.977Z,99540.09
2019-03-28T04:54:19.062Z,99531.59
2019-03-28T04:56:49.201Z,99541.15
2019-03-28T04:59:19.203Z,99538.52
2019-03-28T05:02:01.322Z,99540.86
2019-03-28T05:04:21.346Z,99541.48
2019-03-28T05:06:51.492Z,99549.32
2019-03-28T05:09:21.522Z,99544.48
2019-03-28T05:11:51.433Z,99550.59
2019-03-28T05:14:21.572Z,99556.04
2019-03-28T05:16:51.566Z,99547.66
2019-03-28T05:19:21.692Z,99556.43
2019-03-28T05:21:51.707Z,99549.68
2019-03-28T05:24:25.230Z,99552.34
2019-03-28T05:26:53.682Z,99558.18
2019-03-28T05:29:23.714Z,99554.80
2019-03-28T05:31:53.669Z,99555.33
2019-03-28T05:34:23.613Z,99554.80
2019-03-28T05:36:53.544Z,99556.67
2019-03-28T05:39:23.504Z,99560.14
2019-03-28T05:41:53.544Z,99567.33
2019-03-28T05:44:23.516Z,99566.92
2019-03-28T05:46:53.468Z,99567.66
2019-03-28T05:49:23.442Z,99573.47
2019-03-28T05:51:53.545Z,99573.20
2019-03-28T05:54:23.644Z,99588.81
2019-03-28T05:56:53.722Z,99585.19
2019-03-28T05:59:24.109Z,99589.91
2019-03-28T06:01:54.153Z,99587.83
2019-03-28T06:04:24.188Z,99590.34
2019-03-28T06:06:54.404Z,99596.12
2019-03-28T06:09:24.392Z,99591.52
2019-03-28T06:11:54.636Z,99607.03
2019-03-28T06:14:24.919Z,99605.12
2019-03-28T06:16:54.995Z,99607.64
2019-03-28T06:19:25.045Z,99607.14
2019-03-28T06:21:55.225Z,99613.09
2019-03-28T06:24:25.154Z,99613.09
2019-03-28T06:26:55.094Z,99616.38
2019-03-28T06:29:25.854Z,99616.08
2019-03-28T06:31:56.067Z,99605.16
2019-03-28T06:34:26.543Z,99605.16
2019-03-28T06:36:56.678Z,99598.39
2019-03-28T06:39:26.610Z,99598.39
2019-03-28T06:41:56.567Z,99597.50
2019-03-28T06:44:26.532Z,99585.39
2019-03-28T06:46:56.512Z,99585.39
2019-03-28T06:49:26.669Z,99587.30
2019-03-28T06:51:56.635Z,99589.26
2019-03-28T06:54:26.805Z,99583.48
2019-03-28T06:56:56.795Z,99597.97
2019-03-28T06:59:36.813Z,99597.97
2019-03-28T07:01:58.708Z,99609.42
2019-03-28T07:04:28.733Z,99609.42
2019-03-28T07:06:58.671Z,99606.45
2019-03-28T07:09:28.651Z,99602.83
2019-03-28T07:11:58.592Z,99602.83
2019-03-28T07:14:28.557Z,99598.59
2019-03-28T07:16:58.623Z,99579.77
2019-03-28T07:19:28.594Z,99599.39
2019-03-28T07:21:58.573Z,99604.55
2019-03-28T07:24:28.554Z,99604.55
2019-03-28T07:26:58.587Z,99594.52
2019-03-28T07:29:28.573Z,99595.66
2019-03-28T07:31:58.586Z,99595.66
2019-03-28T07:34:28.629Z,99592.21
2019-03-28T07:36:58.547Z,99595.38
2019-03-28T07:39:28.643Z,99599.53
2019-03-28T07:41:58.700Z,99599.63
2019-03-28T07:44:28.929Z,99590.20
2019-03-28T07:46:59.007Z,99590.20
2019-03-28T07:49:29.084Z,99601.16
2019-03-28T07:51:59.052Z,99601.64
2019-03-28T07:54:29.055Z,99599.68
2019-03-28T07:56:59.191Z,99588.03
2019-03-28T07:59:29.175Z,99586.83
2019-03-28T08:01:59.303Z,99587.03
2019-03-28T08:04:29.425Z,99582.56
2019-03-28T08:06:59.389Z,99586.61
2019-03-28T08:09:36.463Z,99586.11
2019-03-28T08:12:01.400Z,99591.84
2019-03-28T08:14:31.366Z,99591.13
2019-03-28T08:17:01.291Z,99594.32
2019-03-28T08:19:31.372Z,99597.44
2019-03-28T08:22:01.340Z,99595.91
2019-03-28T08:24:31.601Z,99593.28
2019-03-28T08:27:02.175Z,99591.45
2019-03-28T08:29:32.532Z,99590.70
2019-03-28T08:32:04.132Z,99591.55
2019-03-28T08:34:34.372Z,99591.48
2019-03-28T08:37:04.679Z,99595.55
2019-03-28T08:39:34.972Z,99592.39
2019-03-28T08:42:04.986Z,99597.59
2019-03-28T08:44:34.955Z,99598.34
2019-03-28T08:47:06.347Z,99599.36
2019-03-28T08:49:36.490Z,99600.48
2019-03-28T08:52:06.431Z,99599.70
2019-03-28T08:54:36.484Z,99603.95
2019-03-28T08:57:06.477Z,99607.28
2019-03-28T08:59:48.620Z,99602.17
2019-03-28T09:02:18.684Z,99595.71
2019-03-28T09:04:48.845Z,99604.79
2019-03-28T09:07:18.985Z,99601.08
2019-03-28T09:09:49.052Z,99602.92
2019-03-28T09:12:19.275Z,99603.28
2019-03-28T09:14:52.050Z,99597.33
2019-03-28T09:17:23.804Z,99600.59
2019-03-28T09:19:54.029Z,99592.16
2019-03-28T09:22:24.107Z,99595.70
2019-03-28T09:24:54.167Z,99591.15
2019-03-28T09:27:24.220Z,99597.63
2019-03-28T09:29:54.312Z,99593.02
2019-03-28T09:32:24.546Z,99595.16
2019-03-28T09:34:54.646Z,99591.61
2019-03-28T09:37:24.772Z,99595.10
2019-03-28T09:39:54.988Z,99598.08
2019-03-28T09:42:25.043Z,99591.66
2019-03-28T09:44:55.003Z,99594.12
2019-03-28T09:47:26.256Z,99591.41
2019-03-28T09:49:57.134Z,99594.61
2019-03-28T09:52:27.224Z,99592.64
2019-03-28T09:54:57.331Z,99594.52
2019-03-28T09:57:27.279Z,99592.92
2019-03-28T09:59:57.361Z,99587.32
2019-03-28T10:02:27.486Z,99593.86
2019-03-28T10:04:57.541Z,99598.73
2019-03-28T10:07:27.513Z,99590.88
2019-03-28T10:09:57.637Z,99590.56
2019-03-28T10:12:27.591Z,99593.31
2019-03-28T10:14:57.637Z,99584.37
2019-03-28T10:17:27.720Z,99586.27
2019-03-28T10:19:57.807Z,99591.41
2019-03-28T10:22:27.774Z,99586.81
2019-03-28T10:24:57.843Z,99584.39
2019-03-28T10:27:28.305Z,99590.34
2019-03-28T10:29:58.406Z,99586.27
2019-03-28T10:32:28.942Z,99588.20
2019-03-28T10:34:58.957Z,99573.53
2019-03-28T10:37:29.034Z,99575.70
2019-03-28T10:39:59.106Z,99572.41
2019-03-28T10:42:29.263Z,99575.34
2019-03-28T10:44:59.315Z,99572.08
2019-03-28T10:47:29.315Z,99578.34
2019-03-28T10:49:59.362Z,99570.45
2019-03-28T10:52:29.433Z,99565.97
2019-03-28T10:54:59.567Z,99565.66
2019-03-28T10:57:30.462Z,99561.77
2019-03-28T11:00:01.611Z,99563.67
2019-03-28T11:02:31.603Z,99561.95
2019-03-28T11:05:01.856Z,99566.10
2019-03-28T11:07:31.932Z,99565.47
2019-03-28T11:10:02.012Z,99557.50
2019-03-28T11:12:32.049Z,99558.80
2019-03-28T11:15:02.144Z,99552.48
2019-03-28T11:17:32.263Z,99561.63
2019-03-28T11:20:02.310Z,99560.64
2019-03-28T11:22:32.374Z,99555.89
2019-03-28T11:25:02.547Z,99556.96
2019-03-28T11:27:32.735Z,99549.16
2019-03-28T11:30:02.848Z,99550.69
2019-03-28T11:32:35.778Z,99550.97
2019-03-28T11:35:05.268Z,99548.35
2019-03-28T11:37:35.567Z,99550.91
2019-03-28T11:40:09.161Z,99553.40
2019-03-28T11:42:39.412Z,99553.58
2019-03-28T11:45:10.334Z,99555.78
2019-03-28T11:47:40.659Z,99552.52
2019-03-28T11:50:13.009Z,99550.38
2019-03-28T11:52:43.113Z,99547.30
2019-03-28T11:55:13.471Z,99540.44
2019-03-28T11:57:43.900Z,99539.59
2019-03-28T12:00:15.239Z,99543.02
2019-03-28T12:02:45.469Z,99542.60
2019-03-28T12:05:16.341Z,99539.23
2019-03-28T12:07:46.715Z,99538.97
2019-03-28T12:10:17.507Z,99536.45
2019-03-28T12:12:47.682Z,99534.08
2019-03-28T12:15:18.552Z,99537.25
2019-03-28T12:17:48.889Z,99524.50
2019-03-28T12:20:19.093Z,99529.65
2019-03-28T12:22:49.304Z,99527.44
2019-03-28T12:25:19.546Z,99532.51
2019-03-28T12:27:49.696Z,99524.56
2019-03-28T12:30:20.181Z,99529.16
2019-03-28T12:32:50.254Z,99529.72
2019-03-28T12:35:20.250Z,99521.66
2019-03-28T12:37:50.321Z,99520.37
2019-03-28T12:40:20.545Z,99524.69
2019-03-28T12:42:50.500Z,99514.12
2019-03-28T12:45:20.783Z,99510.84
2019-03-28T12:47:50.800Z,99511.77
2019-03-28T12:50:20.873Z,99512.41
2019-03-28T12:52:51.039Z,99509.52
2019-03-28T12:55:21.285Z,99507.91
2019-03-28T12:57:51.309Z,99503.39
2019-03-28T13:00:33.621Z,99503.28
2019-03-28T13:03:03.826Z,99501.35
2019-03-28T13:05:34.853Z,99508.75
2019-03-28T13:08:05.586Z,99509.69
2019-03-28T13:10:35.567Z,99506.59
2019-03-28T13:13:06.136Z,99509.73
2019-03-28T13:15:36.354Z,99510.59
2019-03-28T13:18:06.866Z,99509.65
2019-03-28T13:20:37.289Z,99510.05
2019-03-28T13:23:07.343Z,99504.70
2019-03-28T13:25:37.359Z,99509.55
2019-03-28T13:28:07.558Z,99506.57
2019-03-28T13:30:37.807Z,99506.23
2019-03-28T13:33:07.888Z,99492.48
2019-03-28T13:35:38.076Z,99499.31
2019-03-28T13:38:08.251Z,99498.58
2019-03-28T13:40:38.366Z,99502.91
2019-03-28T13:43:08.424Z,99492.42
2019-03-28T13:45:38.516Z,99491.27
2019-03-28T13:48:08.538Z,99486.98
2019-03-28T13:50:38.959Z,99485.71
2019-03-28T13:53:08.994Z,99485.09
2019-03-28T13:55:39.170Z,99481.19
2019-03-28T13:58:09.397Z,99481.92
2019-03-28T14:00:39.446Z,99478.66
2019-03-28T14:03:09.565Z,99480.88
2019-03-28T14:05:39.539Z,99480.67
2019-03-28T14:08:10.028Z,99478.56
2019-03-28T14:10:40.137Z,99481.62
2019-03-28T14:13:10.185Z,99479.19
2019-03-28T14:15:40.340Z,99483.02
2019-03-28T14:18:10.390Z,99484.29
2019-03-28T14:20:40.548Z,99482.37
2019-03-28T14:23:10.652Z,99483.05
2019-03-28T14:25:41.165Z,99488.40
2019-03-28T14:28:11.281Z,99487.88
2019-03-28T14:30:41.301Z,99490.67
2019-03-28T14:33:14.337Z,99481.86
2019-03-28T14:35:43.281Z,99480.77
2019-03-28T14:38:13.457Z,99491.59
2019-03-28T14:40:43.495Z,99479.83
2019-03-28T14:43:14.078Z,99477.57
2019-03-28T14:45:44.220Z,99480.09
2019-03-28T14:48:14.823Z,99479.06
2019-03-28T14:50:45.052Z,99476.73
2019-03-28T14:53:15.036Z,99482.36
2019-03-28T14:55:45.553Z,99476.47
2019-03-28T14:58:15.814Z,99475.09
2019-03-28T15:00:50.821Z,99470.38
2019-03-28T15:03:28.516Z,99478.73
2019-03-28T15:05:53.219Z,99484.81
2019-03-28T15:08:23.316Z,99475.80
2019-03-28T15:10:53.312Z,99479.33
2019-03-28T15:13:23.345Z,99475.21
2019-03-28T15:15:53.426Z,99479.58
2019-03-28T15:18:23.472Z,99478.06
2019-03-28T15:20:53.605Z,99473.96
2019-03-28T15:23:23.701Z,99479.23
2019-03-28T15:25:53.674Z,99471.39
2019-03-28T15:28:23.648Z,99476.00
2019-03-28T15:30:53.851Z,99474.95
2019-03-28T15:33:23.993Z,99475.98
2019-03-28T15:35:54.393Z,99478.47
2019-03-28T15:38:24.363Z,99480.30
2019-03-28T15:40:54.491Z,99479.23
2019-03-28T15:43:25.365Z,99484.44
2019-03-28T15:45:55.766Z,99476.00
2019-03-28T15:48:25.728Z,99479.28
2019-03-28T15:50:55.723Z,99479.88
2019-03-28T15:53:25.911Z,99486.61
2019-03-28T15:55:55.970Z,99476.08
2019-03-28T15:58:26.045Z,99475.00
2019-03-28T16:00:56.021Z,99484.48
2019-03-28T16:03:26.282Z,99483.91
2019-03-28T16:05:58.527Z,99484.44
2019-03-28T16:08:28.414Z,99486.66
2019-03-28T16:10:58.704Z,99485.00
2019-03-28T16:13:28.822Z,99485.02
2019-03-28T16:15:58.945Z,99486.36
2019-03-28T16:18:28.927Z,99486.94
2019-03-28T16:20:59.023Z,99480.66
2019-03-28T16:23:29.582Z,99471.17
2019-03-28T16:25:59.928Z,99479.85
2019-03-28T16:28:30.070Z,99478.79
2019-03-28T16:31:00.332Z,99474.17
2019-03-28T16:33:30.380Z,99483.40
2019-03-28T16:36:00.368Z,99482.86
2019-03-28T16:38:32.914Z,99477.41
2019-03-28T16:41:02.316Z,99482.31
2019-03-28T16:43:32.353Z,99490.42
2019-03-28T16:46:02.458Z,99487.98
2019-03-28T16:48:32.419Z,99486.38
2019-03-28T16:51:02.570Z,99489.38
2019-03-28T16:53:32.613Z,99481.55
2019-03-28T16:56:02.839Z,99486.12
2019-03-28T16:58:33.341Z,99484.77
2019-03-28T17:01:03.997Z,99483.95
2019-03-28T17:03:34.511Z,99477.72
2019-03-28T17:06:04.472Z,99481.50
2019-03-28T17:08:34.796Z,99486.39
2019-03-28T17:11:05.190Z,99494.27
2019-03-28T17:13:35.425Z,99499.13
2019-03-28T17:16:05.780Z,99496.42
2019-03-28T17:18:35.765Z,99496.67
2019-03-28T17:21:05.956Z,99490.17
2019-03-28T17:23:35.939Z,99489.64
2019-03-28T17:26:06.004Z,99499.94
2019-03-28T17:28:36.152Z,99495.61
2019-03-28T17:31:06.157Z,99498.31
2019-03-28T17:33:36.190Z,99504.53
2019-03-28T17:36:06.271Z,99500.74
2019-03-28T17:38:36.482Z,99502.36
2019-03-28T17:41:06.815Z,99507.52
2019-03-28T17:43:37.177Z,99513.19
2019-03-28T17:46:07.172Z,99516.16
2019-03-28T17:48:37.182Z,99515.61
2019-03-28T17:51:07.354Z,99517.80
2019-03-28T17:53:39.291Z,99517.79
2019-03-28T17:56:09.399Z,99525.11
2019-03-28T17:58:39.371Z,99519.69
2019-03-28T18:01:09.407Z,99516.18
2019-03-28T18:03:39.641Z,99519.41
2019-03-28T18:06:09.709Z,99519.96
2019-03-28T18:08:39.807Z,99525.64
2019-03-28T18:11:09.834Z,99522.92
2019-03-28T18:13:39.927Z,99520.78
2019-03-28T18:16:10.034Z,99525.38
2019-03-28T18:18:40.055Z,99528.89
2019-03-28T18:21:10.117Z,99531.59
2019-03-28T18:23:40.144Z,99534.29
2019-03-28T18:26:10.172Z,99536.73
2019-03-28T18:28:40.229Z,99541.33
2019-03-28T18:31:10.281Z,99541.07
2019-03-28T18:33:40.471Z,99545.13
2019-03-28T18:36:10.691Z,99552.97
2019-03-28T18:38:40.799Z,99549.70
2019-03-28T18:41:10.904Z,99553.50
2019-03-28T18:43:40.946Z,99555.94
2019-03-28T18:46:14.492Z,99553.47
2019-03-28T18:48:42.737Z,99562.68
2019-03-28T18:51:12.917Z,99559.44
2019-03-28T18:53:43.201Z,99562.72
2019-03-28T18:56:13.368Z,99562.42
2019-03-28T18:58:43.336Z,99565.42
2019-03-28T19:01:13.529Z,99567.30
2019-03-28T19:03:43.768Z,99566.16
2019-03-28T19:06:15.109Z,99562.66
2019-03-28T19:08:45.263Z,99562.91
2019-03-28T19:11:15.447Z,99563.20
2019-03-28T19:13:45.685Z,99572.34
2019-03-28T19:16:16.006Z,99573.44
2019-03-28T19:18:46.351Z,99575.61
2019-03-28T19:21:16.337Z,99570.77
2019-03-28T19:23:46.344Z,99577.75
2019-03-28T19:26:16.341Z,99580.61
2019-03-28T19:28:46.320Z,99577.43
2019-03-28T19:31:16.342Z,99579.63
2019-03-28T19:33:46.284Z,99585.81
2019-03-28T19:36:17.324Z,99586.05
2019-03-28T19:38:47.818Z,99591.72
2019-03-28T19:41:18.081Z,99596.35
2019-03-28T19:43:48.280Z,99592.84
2019-03-28T19:46:18.356Z,99588.78
2019-03-28T19:48:48.400Z,99590.37
2019-03-28T19:51:18.460Z,99583.05
2019-03-28T19:53:48.432Z,99578.99
2019-03-28T19:56:18.634Z,99574.09
2019-03-28T19:58:48.702Z,99575.34
2019-03-28T20:01:18.684Z,99563.95
2019-03-28T20:03:48.797Z,99572.47
2019-03-28T20:06:22.310Z,99570.64
2019-03-28T20:08:50.881Z,99572.16
2019-03-28T20:11:20.973Z,99574.83
2019-03-28T20:13:51.252Z,99571.59
2019-03-28T20:16:21.835Z,99572.95
2019-03-28T20:18:51.969Z,99569.39
2019-03-28T20:21:22.119Z,99566.73
2019-03-28T20:23:52.171Z,99571.24
2019-03-28T20:26:23.152Z,99565.30
2019-03-28T20:28:53.167Z,99569.48
2019-03-28T20:31:23.490Z,99568.18
2019-03-28T20:33:53.447Z,99571.42
2019-03-28T20:36:36.999Z,99567.00
2019-03-28T20:39:03.928Z,99571.96
2019-03-28T20:41:27.367Z,99574.57
2019-03-28T20:43:57.745Z,99577.48
2019-03-28T20:46:29.003Z,99572.30
2019-03-28T20:48:59.236Z,99570.40
2019-03-28T20:51:29.549Z,99567.91
2019-03-28T20:53:59.695Z,99574.33
2019-03-28T20:56:29.797Z,99570.95
2019-03-28T20:58:59.885Z,99571.75
2019-03-28T21:01:30.859Z,99573.53
2019-03-28T21:04:01.140Z,99573.53
2019-03-28T21:06:31.158Z,99580.00
2019-03-28T21:09:01.216Z,99582.56
2019-03-28T21:11:31.365Z,99585.48
2019-03-28T21:14:01.865Z,99587.63
2019-03-28T21:16:33.855Z,99580.39
2019-03-28T21:19:03.995Z,99588.37
2019-03-28T21:21:34.023Z,99590.24
2019-03-28T21:24:04.753Z,99588.03
2019-03-28T21:26:34.995Z,99592.62
2019-03-28T21:29:06.398Z,99583.11
2019-03-28T21:31:49.801Z,99585.89
2019-03-28T21:34:12.665Z,99583.27
2019-03-28T21:36:43.363Z,99584.89
2019-03-28T21:39:22.772Z,99578.02
2019-03-28T21:41:59.550Z,99573.16
2019-03-28T21:44:33.891Z,99575.45
2019-03-28T21:47:07.626Z,99569.53
2019-03-28T21:49:39.607Z,99570.14
2019-03-28T21:52:10.759Z,99569.53
2019-03-28T21:54:42.065Z,99566.01
2019-03-28T21:57:14.724Z,99573.75
2019-03-28T21:59:46.314Z,99572.86
2019-03-28T22:02:17.301Z,99574.70
2019-03-28T22:04:48.923Z,99567.73
2019-03-28T22:07:20.281Z,99573.34
2019-03-28T22:09:51.871Z,99571.17
2019-03-28T22:12:22.758Z,99573.49
2019-03-28T22:14:54.707Z,99570.80
2019-03-28T22:17:27.116Z,99575.56
2019-03-28T22:20:00.439Z,99572.52
2019-03-28T22:22:31.669Z,99577.00
2019-03-28T22:25:03.753Z,99577.00
2019-03-28T22:27:35.484Z,99576.54
2019-03-28T22:30:08.393Z,99576.28
2019-03-28T22:32:39.525Z,99582.63
2019-03-28T22:35:13.649Z,99575.27
2019-03-28T22:37:44.783Z,99575.45
2019-03-28T22:40:16.409Z,99570.16
2019-03-28T22:42:48.440Z,99569.68
2019-03-28T22:45:19.017Z,99578.82
2019-03-28T22:47:50.098Z,99574.42
2019-03-28T22:50:20.303Z,99571.61
2019-03-28T22:52:50.410Z,99571.61
2019-03-28T22:55:20.452Z,99575.70
2019-03-28T22:57:53.817Z,99572.83
2019-03-28T23:00:24.332Z,99577.62
2019-03-28T23:02:54.928Z,99566.48
2019-03-28T23:05:25.085Z,99567.99
2019-03-28T23:07:55.035Z,99567.99
2019-03-28T23:10:25.050Z,99570.36
2019-03-28T23:12:55.072Z,99570.36
2019-03-28T23:15:25.164Z,99569.67
2019-03-28T23:17:55.211Z,99563.09
2019-03-28T23:20:25.126Z,99565.58
2019-03-28T23:22:55.248Z,99565.58
2019-03-28T23:25:25.249Z,99569.03
2019-03-28T23:27:55.348Z,99561.66
2019-03-28T23:30:25.588Z,99572.78
2019-03-28T23:32:55.682Z,99572.78
2019-03-28T23:35:25.713Z,99568.30
2019-03-28T23:37:55.724Z,99577.47
2019-03-28T23:40:26.472Z,99554.27
2019-03-28T23:42:56.751Z,99562.02
2019-03-28T23:45:26.836Z,99562.02
2019-03-28T23:47:56.750Z,99576.86
2019-03-28T23:50:26.934Z,99576.86
2019-03-28T23:52:56.966Z,99574.64
2019-03-28T23:55:26.972Z,99574.37
2019-03-28T23:57:57.019Z,99579.75
